createdAt,value
2016-12-31T00:00:03.965Z,-1.2
2016-12-31T00:05:04.761Z,-0.8
2016-12-31T00:10:04.795Z,-0.8
2016-12-31T00:15:04.933Z,-0.6
2016-12-31T00:20:04.815Z,-0.5
2016-12-31T00:25:04.771Z,-0.5
2016-12-31T00:30:04.781Z,-0.5
2016-12-31T00:35:04.749Z,-0.5
2016-12-31T00:40:04.779Z,-0.5
2016-12-31T00:45:04.794Z,-0.5
2016-12-31T00:50:04.697Z,-0.5
2016-12-31T00:55:04.794Z,-0.5
2016-12-31T01:00:04.712Z,-0.3
2016-12-31T01:05:04.674Z,-0.3
2016-12-31T01:10:04.625Z,-0.3
2016-12-31T01:15:04.612Z,-0.5
2016-12-31T01:20:04.412Z,-0.5
2016-12-31T01:25:04.507Z,-0.5
2016-12-31T01:30:04.487Z,-0.5
2016-12-31T01:35:04.530Z,-0.5
2016-12-31T01:40:04.515Z,-0.5
2016-12-31T01:45:04.337Z,-0.5
2016-12-31T01:50:04.517Z,-0.6
2016-12-31T01:55:04.359Z,-0.6
2016-12-31T02:00:03.984Z,-0.6
2016-12-31T02:05:04.990Z,-0.8
2016-12-31T02:10:04.054Z,-1.1
2016-12-31T02:15:03.968Z,-0.8
2016-12-31T02:20:04.680Z,-0.8
2016-12-31T02:25:04.715Z,-0.8
2016-12-31T02:30:04.523Z,-0.6
2016-12-31T02:35:04.518Z,-0.8
2016-12-31T02:40:04.711Z,-0.8
2016-12-31T02:45:04.560Z,-0.8
2016-12-31T02:50:04.529Z,-1.1
2016-12-31T02:55:04.383Z,-1.1
2016-12-31T03:00:04.689Z,-0.8
2016-12-31T03:05:09.958Z,-0.8
2016-12-31T03:10:04.654Z,-0.8
2016-12-31T03:15:04.494Z,-0.8
2016-12-31T03:20:04.599Z,-1.1
2016-12-31T03:25:04.555Z,-1.1
2016-12-31T03:30:04.697Z,-1.1
2016-12-31T03:35:04.567Z,-1.1
2016-12-31T03:40:04.755Z,-1.1
2016-12-31T03:45:04.401Z,-1.1
2016-12-31T03:50:04.278Z,-1.1
2016-12-31T03:55:04.452Z,-1.1
2016-12-31T04:00:04.481Z,-1.1
2016-12-31T04:05:05.042Z,-1.1
2016-12-31T04:10:04.517Z,-1.2
2016-12-31T04:15:04.410Z,-1.1
2016-12-31T04:20:04.589Z,-1.1
2016-12-31T04:25:04.526Z,-1.1
2016-12-31T04:30:04.404Z,-1.2
2016-12-31T04:35:04.541Z,-1.2
2016-12-31T04:40:04.895Z,-1.5
2016-12-31T04:45:04.727Z,-1.7
2016-12-31T04:50:04.439Z,-1.7
2016-12-31T04:55:04.104Z,-1.8
2016-12-31T05:00:04.030Z,-1.8
2016-12-31T05:05:04.024Z,-1.8
2016-12-31T05:10:04.408Z,-1.7
2016-12-31T05:15:04.262Z,-1.8
2016-12-31T05:20:04.209Z,-1.7
2016-12-31T05:25:03.951Z,-1.8
2016-12-31T05:30:04.828Z,-1.8
2016-12-31T05:35:04.606Z,-1.7
2016-12-31T05:40:04.616Z,-1.7
2016-12-31T05:45:04.713Z,-1.7
2016-12-31T05:50:04.635Z,-1.5
2016-12-31T05:55:04.298Z,-1.5
2016-12-31T06:00:03.964Z,-1.5
2016-12-31T06:05:04.751Z,-1.5
2016-12-31T06:10:04.140Z,-1.5
2016-12-31T06:15:03.972Z,-1.5
2016-12-31T06:20:04.687Z,-1.5
2016-12-31T06:25:04.470Z,-1.5
2016-12-31T06:30:04.509Z,-1.5
2016-12-31T06:35:04.948Z,-1.5
2016-12-31T06:40:04.969Z,-1.5
2016-12-31T06:45:04.196Z,-1.5
2016-12-31T06:50:04.237Z,-1.7
2016-12-31T06:55:04.157Z,-1.7
2016-12-31T07:00:04.824Z,-1.7
2016-12-31T07:05:04.632Z,-1.7
2016-12-31T07:10:03.904Z,-1.7
2016-12-31T07:15:04.916Z,-1.7
2016-12-31T07:20:04.749Z,-1.7
2016-12-31T07:25:04.704Z,-1.7
2016-12-31T07:30:04.749Z,-1.5
2016-12-31T07:35:04.516Z,-1.7
2016-12-31T07:40:04.806Z,-1.7
2016-12-31T07:45:04.854Z,-1.7
2016-12-31T07:50:04.635Z,-1.7
2016-12-31T07:55:04.442Z,-1.7
2016-12-31T08:00:04.300Z,-1.7
2016-12-31T08:05:04.284Z,-1.7
2016-12-31T08:10:04.676Z,-1.7
2016-12-31T08:15:04.691Z,-1.5
2016-12-31T08:20:03.826Z,-1.7
2016-12-31T08:25:04.029Z,-1.5
2016-12-31T08:30:04.280Z,-1.5
2016-12-31T08:35:04.290Z,-1.5
2016-12-31T08:40:04.403Z,-1.5
2016-12-31T08:45:04.328Z,-1.5
2016-12-31T08:55:35.643Z,-1.5
2016-12-31T09:00:04.670Z,-1.2
2016-12-31T09:05:04.404Z,-1.5
2016-12-31T09:10:04.740Z,-1.5
2016-12-31T09:15:04.510Z,-1.2
2016-12-31T09:20:04.223Z,-1.2
2016-12-31T09:25:04.070Z,-1.2
2016-12-31T09:30:03.987Z,-1.1
2016-12-31T09:35:04.747Z,-1.1
2016-12-31T09:40:04.150Z,-1.1
2016-12-31T09:45:04.876Z,-0.8
2016-12-31T09:50:04.703Z,-0.8
2016-12-31T09:55:04.611Z,-0.8
2016-12-31T10:00:04.346Z,-0.8
2016-12-31T10:05:04.161Z,-0.8
2016-12-31T10:10:04.191Z,-0.8
2016-12-31T10:15:04.306Z,-0.8
2016-12-31T10:20:05.035Z,-0.8
2016-12-31T10:25:04.013Z,-0.6
2016-12-31T10:30:04.752Z,-0.6
2016-12-31T10:35:04.677Z,-0.6
2016-12-31T10:40:04.797Z,-0.6
2016-12-31T10:45:04.818Z,-0.5
2016-12-31T10:50:04.748Z,-0.6
2016-12-31T10:55:04.837Z,-0.6
2016-12-31T11:00:03.883Z,-0.6
2016-12-31T11:05:04.902Z,-0.5
2016-12-31T11:10:04.195Z,-0.5
2016-12-31T11:15:04.328Z,-0.5
2016-12-31T11:20:04.026Z,-0.5
2016-12-31T11:25:04.786Z,-0.5
2016-12-31T11:30:04.501Z,-0.3
2016-12-31T11:35:04.396Z,-0.3
2016-12-31T11:40:04.738Z,-0.3
2016-12-31T11:45:04.620Z,-0.3
2016-12-31T11:50:04.456Z,-0.3
2016-12-31T11:55:04.193Z,-0.3
2016-12-31T12:00:03.897Z,-0.3
2016-12-31T12:05:04.725Z,-0.3
2016-12-31T12:10:04.115Z,-0.3
2016-12-31T12:15:04.029Z,-0.3
2016-12-31T12:20:03.890Z,-0.3
2016-12-31T12:25:04.720Z,-0.3
2016-12-31T12:30:04.589Z,-0.3
2016-12-31T12:35:04.328Z,-0.3
2016-12-31T12:40:04.580Z,0.0
2016-12-31T12:45:04.476Z,-0.3
2016-12-31T12:50:04.471Z,-0.3
2016-12-31T12:55:04.452Z,0.0
2016-12-31T13:00:04.292Z,0.0
2016-12-31T13:05:04.261Z,0.0
2016-12-31T13:10:04.276Z,0.0
2016-12-31T13:15:04.329Z,0.0
2016-12-31T13:20:04.552Z,0.0
2016-12-31T13:25:04.383Z,0.0
2016-12-31T13:30:04.511Z,0.0
2016-12-31T13:35:04.638Z,0.0
2016-12-31T13:40:04.853Z,0.0
2016-12-31T13:45:03.900Z,0.0
2016-12-31T13:50:04.916Z,0.0
2016-12-31T13:55:04.645Z,0.0
2016-12-31T14:00:04.622Z,0.0
2016-12-31T14:05:04.568Z,0.0
2016-12-31T14:10:04.682Z,0.1
2016-12-31T14:15:04.841Z,0.1
2016-12-31T14:20:04.634Z,0.1
2016-12-31T14:25:04.433Z,0.1
2016-12-31T14:30:04.312Z,0.1
2016-12-31T14:35:04.295Z,0.1
2016-12-31T14:40:04.216Z,0.1
2016-12-31T14:45:04.372Z,0.1
2016-12-31T14:50:04.391Z,0.1
2016-12-31T14:55:04.295Z,0.1
2016-12-31T15:00:04.302Z,0.1
2016-12-31T15:05:04.423Z,0.1
2016-12-31T15:10:04.731Z,0.1
2016-12-31T15:15:04.682Z,0.1
2016-12-31T15:20:04.599Z,0.1
2016-12-31T15:25:04.492Z,0.1
2016-12-31T15:30:04.374Z,0.3
2016-12-31T15:35:04.254Z,0.1
2016-12-31T15:40:04.372Z,0.1
2016-12-31T15:45:04.337Z,0.1
2016-12-31T15:50:04.399Z,0.1
2016-12-31T15:55:04.385Z,0.1
2016-12-31T16:00:04.304Z,0.1
2016-12-31T16:05:04.100Z,0.1
2016-12-31T16:10:04.586Z,0.0
2016-12-31T16:15:04.535Z,0.0
2016-12-31T16:20:04.640Z,0.1
2016-12-31T16:25:04.608Z,0.1
2016-12-31T16:30:04.570Z,0.1
2016-12-31T16:35:04.445Z,0.1
2016-12-31T16:40:04.781Z,0.1
2016-12-31T16:45:04.691Z,0.1
2016-12-31T16:50:04.902Z,0.1
2016-12-31T16:55:04.723Z,0.1
2016-12-31T17:00:05.127Z,0.1
2016-12-31T17:05:03.800Z,0.1
2016-12-31T17:10:04.205Z,0.1
2016-12-31T17:15:04.216Z,0.3
2016-12-31T17:20:04.147Z,0.3
2016-12-31T17:25:04.122Z,0.3
2016-12-31T17:30:04.028Z,0.1
2016-12-31T17:35:04.738Z,0.3
2016-12-31T17:40:04.162Z,0.3
2016-12-31T17:45:04.036Z,0.3
2016-12-31T17:50:03.929Z,0.3
2016-12-31T17:55:04.750Z,0.4
2016-12-31T18:00:04.478Z,0.4
2016-12-31T18:05:04.367Z,0.4
2016-12-31T18:10:04.618Z,0.4
2016-12-31T18:15:04.326Z,0.4
2016-12-31T18:20:04.452Z,0.4
2016-12-31T18:25:04.158Z,0.4
2016-12-31T18:30:04.119Z,0.4
2016-12-31T18:35:04.041Z,0.4
2016-12-31T18:40:04.154Z,0.3
2016-12-31T18:45:04.166Z,0.3
2016-12-31T18:50:04.085Z,0.4
2016-12-31T18:55:04.812Z,0.4
2016-12-31T19:00:03.998Z,0.4
2016-12-31T19:05:04.860Z,0.4
2016-12-31T19:10:04.088Z,0.6
2016-12-31T19:15:04.238Z,0.4
2016-12-31T19:20:04.263Z,0.6
2016-12-31T19:25:04.190Z,0.4
2016-12-31T19:30:04.251Z,0.4
2016-12-31T19:35:03.935Z,0.4
2016-12-31T19:40:04.029Z,0.6
2016-12-31T19:45:04.041Z,0.6
2016-12-31T19:50:04.140Z,0.4
2016-12-31T19:55:04.137Z,0.4
2016-12-31T20:00:04.813Z,0.4
2016-12-31T20:05:04.475Z,0.4
2016-12-31T20:10:04.570Z,0.4
2016-12-31T20:15:04.665Z,0.6
2016-12-31T20:20:04.737Z,0.4
2016-12-31T20:25:04.465Z,0.4
2016-12-31T20:30:04.293Z,0.6
2016-12-31T20:35:04.126Z,0.6
2016-12-31T20:40:04.187Z,0.7
2016-12-31T20:45:03.994Z,0.6
2016-12-31T20:50:04.949Z,0.6
2016-12-31T20:55:03.908Z,0.6
2016-12-31T21:00:04.767Z,0.6
2016-12-31T21:05:04.922Z,0.6
2016-12-31T21:10:04.186Z,0.6
2016-12-31T21:15:04.105Z,0.6
2016-12-31T21:20:03.977Z,0.6
2016-12-31T21:25:04.035Z,0.7
2016-12-31T21:30:04.273Z,0.8
2016-12-31T21:35:04.476Z,0.8
2016-12-31T21:40:04.770Z,0.7
2016-12-31T21:45:04.777Z,0.8
2016-12-31T21:50:04.511Z,0.8
2016-12-31T21:55:04.655Z,0.7
2016-12-31T22:00:04.945Z,0.7
2016-12-31T22:05:04.867Z,0.7
2016-12-31T22:10:04.689Z,0.6
2016-12-31T22:15:04.779Z,0.4
2016-12-31T22:20:04.933Z,0.4
2016-12-31T22:25:04.804Z,0.4
2016-12-31T22:30:04.644Z,0.4
2016-12-31T22:35:04.768Z,0.4
2016-12-31T22:40:04.033Z,0.4
2016-12-31T22:45:03.864Z,0.3
2016-12-31T22:50:03.975Z,0.4
2016-12-31T22:55:04.042Z,0.3
2016-12-31T23:00:03.994Z,0.3
2016-12-31T23:05:04.171Z,0.1
2016-12-31T23:10:04.517Z,0.0
2016-12-31T23:15:04.503Z,0.0
2016-12-31T23:20:04.420Z,0.0
2016-12-31T23:25:04.226Z,0.0
2016-12-31T23:30:04.185Z,0.1
2016-12-31T23:35:03.857Z,0.1
2016-12-31T23:40:03.973Z,0.1
2016-12-31T23:45:04.848Z,0.0
2016-12-31T23:50:04.585Z,0.0
2016-12-31T23:55:04.279Z,-0.3
